Orbital elements of FENGYUN 1C DEB
| Launched | 9 May 1999 |
| Flight ended | – |
| Launch site | Taiyuan Space Center, PRC |
| Owner | People's Republic of China |
| NORAD ID | 30604 |
| Date fetched |
Epoch osculation |
Inc. [°] |
Ecc. | RA asc node [hr] |
Arg Peri. [°] |
Mean anom [°] |
Mean motion [rev/day] |
Abs. mag |
| Date fetched |
Epoch osculation |
Inc. [°] |
Ecc. | RA asc node [hr] |
Arg Peri. [°] |
Mean anom [°] |
Mean motion [rev/day] |
Abs. mag |
| 2026 May 03 17:57 | 2026 Apr 30 13:28:34 | 98.3823 | 0.02080 | 10.2810 | 320.4115 | 194.1795 | 14.23877 | – |
| 2026 May 02 17:57 | 2026 Apr 30 13:28:34 | 98.3823 | 0.02080 | 10.2810 | 320.4115 | 194.1795 | 14.23877 | – |
| 2026 May 01 17:56 | 2026 Apr 30 13:28:34 | 98.3823 | 0.02080 | 10.2810 | 320.4115 | 194.1795 | 14.23877 | – |
| 2026 Apr 30 17:56 | 2026 Apr 30 13:28:34 | 98.3823 | 0.02080 | 10.2810 | 320.4115 | 194.1795 | 14.23877 | – |
| 2026 Apr 29 17:57 | 2026 Apr 24 08:25:18 | 98.3832 | 0.02083 | 9.8857 | 338.6681 | 194.1795 | 14.23877 | – |
| 2026 Apr 28 17:56 | 2026 Apr 24 08:25:18 | 98.3832 | 0.02083 | 9.8857 | 338.6681 | 194.1795 | 14.23877 | – |
| 2026 Apr 27 17:58 | 2026 Apr 24 08:25:18 | 98.3832 | 0.02083 | 9.8857 | 338.6681 | 194.1795 | 14.23877 | – |
| 2026 Apr 26 17:58 | 2026 Apr 24 08:25:18 | 98.3832 | 0.02083 | 9.8857 | 338.6681 | 194.1795 | 14.23877 | – |
| 2026 Apr 25 17:58 | 2026 Apr 24 08:25:18 | 98.3832 | 0.02083 | 9.8857 | 338.6681 | 194.1795 | 14.23877 | – |
| 2026 Apr 24 17:59 | 2026 Apr 24 08:25:18 | 98.3832 | 0.02083 | 9.8857 | 338.6681 | 194.1795 | 14.23877 | – |
| 2026 Apr 23 17:57 | 2026 Apr 19 08:39:40 | 98.3842 | 0.02087 | 9.5681 | 353.3188 | 194.1795 | 14.23877 | – |
| 2026 Apr 22 17:57 | 2026 Apr 19 08:39:40 | 98.3842 | 0.02087 | 9.5681 | 353.3188 | 194.1795 | 14.23877 | – |
| 2026 Apr 21 17:57 | 2026 Apr 19 08:39:40 | 98.3842 | 0.02087 | 9.5681 | 353.3188 | 194.1795 | 14.23877 | – |
| 2026 Apr 20 17:57 | 2026 Apr 19 08:39:40 | 98.3842 | 0.02087 | 9.5681 | 353.3188 | 194.1795 | 14.23877 | – |
| 2026 Apr 19 17:58 | 2026 Apr 19 08:39:40 | 98.3842 | 0.02087 | 9.5681 | 353.3188 | 194.1795 | 14.23877 | – |
| 2026 Apr 18 17:56 | 2026 Apr 13 00:56:54 | 98.3853 | 0.02091 | 9.1657 | 11.8379 | 194.1795 | 14.23877 | – |
| 2026 Apr 16 17:57 | 2026 Apr 13 00:56:54 | 98.3853 | 0.02091 | 9.1657 | 11.8379 | 194.1795 | 14.23877 | – |
| 2026 Apr 14 17:57 | 2026 Apr 13 00:56:54 | 98.3853 | 0.02091 | 9.1657 | 11.8379 | 194.1795 | 14.23877 | – |
| 2026 Apr 13 17:57 | 2026 Apr 13 00:56:54 | 98.3853 | 0.02091 | 9.1657 | 11.8379 | 194.1795 | 14.23877 | – |
| 2026 Apr 12 17:57 | 2026 Apr 08 13:35:39 | 98.3855 | 0.02094 | 8.8810 | 24.9199 | 194.1795 | 14.23877 | – |
| 2026 Apr 11 17:57 | 2026 Apr 08 13:35:39 | 98.3855 | 0.02094 | 8.8810 | 24.9199 | 194.1795 | 14.23877 | – |
| 2026 Apr 10 17:58 | 2026 Apr 08 13:35:39 | 98.3855 | 0.02094 | 8.8810 | 24.9199 | 194.1795 | 14.23877 | – |
| 2026 Apr 09 18:01 | 2026 Apr 08 13:35:39 | 98.3855 | 0.02094 | 8.8810 | 24.9199 | 194.1795 | 14.23877 | – |
| 2026 Apr 08 17:57 | 2026 Apr 08 13:35:39 | 98.3855 | 0.02094 | 8.8810 | 24.9199 | 194.1795 | 14.23877 | – |
| 2026 Apr 07 17:57 | 2026 Apr 02 01:50:16 | 98.3867 | 0.02099 | 8.4679 | 43.8786 | 194.1795 | 14.23877 | – |
| 2026 Apr 06 17:57 | 2026 Apr 02 01:50:16 | 98.3867 | 0.02099 | 8.4679 | 43.8786 | 194.1795 | 14.23877 | – |